Time;durP1;ratioP1;P1;durP2;ratioP2;P2;SDS_P1;SDS_P2;PMS_P1;PMS_P2;Temp;Humidity;BMP_temperature;BMP_pressure;BME280_temperature;BME280_humidity;BME280_pressure;Samples;Min_cycle;Max_cycle;Signal;HPM_P1;HPM_P2
2023/03/19 00:01:30;;;;;;;;;;;15.60;57.80;;;15.87;41.17;98367.47;4968955;28;124265;-75
2023/03/19 00:03:57;;;;;;;;;;;15.60;57.80;;;15.85;41.02;98364.25;4970040;28;124558;-74
2023/03/19 00:06:24;;;;;;;;;;;15.60;57.90;;;15.84;41.06;98370.97;4972498;28;115523;-75
2023/03/19 00:08:51;;;;;;;;;;;15.50;57.90;;;15.82;41.07;98367.72;4968466;28;114774;-74
2023/03/19 00:11:17;;;;;;;;;;;15.50;57.90;;;15.81;41.13;98368.09;4985468;28;124862;-75
2023/03/19 00:13:43;;;;;;;;;;;15.50;57.90;;;15.80;41.12;98370.09;4972417;28;123960;-77
2023/03/19 00:16:10;;;;;;;;;;;15.50;58.00;;;15.80;40.94;98374.84;4969433;28;114120;-76
2023/03/19 00:18:36;;;;;;;;;;;15.50;58.00;;;15.79;41.29;98367.63;4968415;28;113675;-78
2023/03/19 00:21:03;;;;;;;;;;;15.50;58.10;;;15.78;41.25;98372.41;4969182;28;124044;-75
2023/03/19 00:23:30;;;;;;;;;;;15.50;58.20;;;15.75;41.27;98364.78;4970788;28;122865;-74
2023/03/19 00:25:56;;;;;;;;;;;15.50;58.30;;;15.74;41.34;98365.91;4975989;28;114609;-75
2023/03/19 00:28:22;;;;;;;;;;;15.40;58.30;;;15.73;41.43;98369.09;4966008;28;113822;-75
2023/03/19 00:30:49;;;;;;;;;;;15.40;58.40;;;15.71;41.42;98365.84;4963725;28;124246;-76
2023/03/19 00:33:15;;;;;;;;;;;15.40;58.50;;;15.68;41.53;98370.94;4974937;28;124091;-76
2023/03/19 00:35:41;;;;;;;;;;;15.40;58.50;;;15.67;41.56;98371.28;4971824;28;114861;-76
2023/03/19 00:38:08;;;;;;;;;;;15.40;58.50;;;15.65;41.58;98368.03;4969907;28;113741;-77
2023/03/19 00:40:34;;;;;;;;;;;15.40;58.50;;;15.60;41.54;98377.47;4968430;28;124061;-76
2023/03/19 00:43:01;;;;;;;;;;;15.30;58.40;;;15.56;41.60;98376.56;4968939;28;123957;-76
2023/03/19 00:45:29;;;;;;;;;;;15.30;58.40;;;15.52;41.75;98375.66;4979452;28;114166;-77
2023/03/19 00:47:56;;;;;;;;;;;15.30;58.40;;;15.49;41.73;98386.69;4970804;28;113704;-76
2023/03/19 00:50:24;;;;;;;;;;;15.20;58.50;;;15.45;41.76;98381.84;4969049;28;124378;-78
2023/03/19 00:52:51;;;;;;;;;;;15.20;58.50;;;15.44;41.86;98385.78;4968344;28;124241;-76
2023/03/19 00:55:17;;;;;;;;;;;15.20;58.60;;;15.44;41.60;98388.56;4973983;28;115383;-77
2023/03/19 00:57:44;;;;;;;;;;;15.20;58.80;;;15.44;41.90;98388.56;4960002;28;115170;-76
2023/03/19 01:00:11;;;;;;;;;;;15.20;58.80;;;15.44;41.90;98388.56;4965252;28;124210;-78
2023/03/19 01:02:38;;;;;;;;;;;15.20;58.90;;;15.43;42.08;98380.56;4967097;28;123527;-77
2023/03/19 01:05:05;;;;;;;;;;;15.20;58.90;;;15.41;41.94;98385.69;4964859;28;114444;-77
2023/03/19 01:07:31;;;;;;;;;;;15.10;59.10;;;15.34;42.17;98386.31;4968630;28;113847;-76
2023/03/19 01:09:58;;;;;;;;;;;15.10;59.10;;;15.30;42.00;98390.13;4972612;28;124375;-78
2023/03/19 01:12:25;;;;;;;;;;;15.10;59.20;;;15.25;42.07;98402.31;4955524;28;124057;-77
2023/03/19 01:14:52;;;;;;;;;;;15.00;59.20;;;15.23;42.41;98399.91;4968925;28;114172;-76
2023/03/19 01:17:18;;;;;;;;;;;15.00;59.20;;;15.22;42.43;98397.47;4970604;28;113657;-76
2023/03/19 01:19:44;;;;;;;;;;;15.00;59.40;;;15.22;42.20;98401.06;4996689;28;122331;-79
2023/03/19 01:22:13;;;;;;;;;;;15.00;59.50;;;15.24;42.48;98392.38;4970584;28;124560;-75
2023/03/19 01:24:39;;;;;;;;;;;14.90;59.50;;;15.24;42.35;98397.94;4999694;28;113835;-76
2023/03/19 01:27:05;;;;;;;;;;;14.90;59.50;;;15.25;42.35;98399.53;4968614;28;114211;-76
2023/03/19 01:29:32;;;;;;;;;;;15.00;59.60;;;15.25;42.25;98402.31;4968251;28;123911;-76
2023/03/19 01:31:58;;;;;;;;;;;15.00;59.70;;;15.20;42.58;98406.16;4967879;28;124103;-76
2023/03/19 01:34:24;;;;;;;;;;;14.90;59.80;;;15.12;42.64;98409.91;4982576;28;113919;-77
2023/03/19 01:36:51;;;;;;;;;;;14.90;60.00;;;15.01;42.91;98423.50;4969008;28;114051;-76
2023/03/19 01:39:18;;;;;;;;;;;14.80;60.00;;;14.97;42.99;98419.81;4968255;28;124524;-77
2023/03/19 01:41:45;;;;;;;;;;;14.80;60.00;;;14.95;43.10;98429.66;4968435;28;124305;-83
2023/03/19 01:44:32;;;;;;;;;;;14.70;60.00;;;14.93;42.94;98429.19;4968682;28;115372;-79
2023/03/19 01:47:00;;;;;;;;;;;14.50;60.00;;;14.92;43.23;98431.16;4968319;28;114593;-80
2023/03/19 01:49:28;;;;;;;;;;;14.70;60.30;;;14.91;43.32;98432.34;4982665;28;123656;-75
2023/03/19 01:51:55;;;;;;;;;;;14.70;60.50;;;14.93;43.02;98426.41;4967675;28;123768;-82
2023/03/19 01:54:23;;;;;;;;;;;14.60;60.50;;;14.89;42.77;98437.44;4969910;28;113002;-79
2023/03/19 01:57:02;;;;;;;;;;;14.60;60.20;;;14.87;41.93;98439.75;4977707;28;113805;-77
2023/03/19 01:59:32;;;;;;;;;;;14.60;59.30;;;14.82;41.65;98431.66;4958540;28;124885;-79
2023/03/19 02:02:05;;;;;;;;;;;14.50;58.60;;;14.79;41.35;98435.13;4966871;28;124095;-77
2023/03/19 02:04:33;;;;;;;;;;;14.50;58.40;;;14.79;41.32;98437.91;4967995;28;114727;-80
2023/03/19 02:07:00;;;;;;;;;;;14.50;58.40;;;14.76;41.42;98438.59;4965917;28;113821;-80
2023/03/19 02:09:28;;;;;;;;;;;14.40;58.20;;;14.75;41.41;98437.00;4971254;28;124606;-80
2023/03/19 02:11:55;;;;;;;;;;;14.40;58.40;;;14.75;41.68;98431.44;4999607;28;123896;-78
2023/03/19 02:14:22;;;;;;;;;;;14.40;58.60;;;14.74;42.13;98438.94;4960969;28;114483;-78
2023/03/19 02:16:48;;;;;;;;;;;14.40;59.80;;;14.74;42.80;98435.34;4998897;28;113470;-77
2023/03/19 02:19:21;;;;;;;;;;;14.40;59.90;;;14.71;43.58;98436.06;4967972;28;124240;-79
2023/03/19 02:21:47;;;;;;;;;;;14.40;60.90;;;14.68;44.17;98442.31;4966085;28;123920;-80
2023/03/19 02:24:25;;;;;;;;;;;14.40;61.80;;;14.65;45.94;98454.16;4953221;28;113563;-78
2023/03/19 02:26:51;;;;;;;;;;;14.30;64.00;;;14.55;48.47;98472.91;4965505;28;113713;-78
2023/03/19 02:29:18;;;;;;;;;;;14.30;68.00;;;14.43;50.12;98464.53;4959825;28;124185;-77
2023/03/19 02:31:44;;;;;;;;;;;14.20;69.90;;;14.34;50.82;98463.81;4965795;28;122727;-80
2023/03/19 02:34:22;;;;;;;;;;;14.10;70.60;;;14.28;51.60;98467.97;4947207;28;115778;-81
2023/03/19 02:37:24;;;;;;;;;;;14.10;71.60;;;14.20;51.51;98471.69;4949734;28;114912;-83
2023/03/19 02:39:55;;;;;;;;;;;14.00;71.60;;;14.17;51.64;98453.72;4957501;28;124684;-81
2023/03/19 02:42:23;;;;;;;;;;;14.00;71.90;;;14.18;51.82;98451.75;4971978;28;124488;-84
2023/03/19 02:44:50;;;;;;;;;;;14.00;72.20;;;14.18;52.13;98454.53;4961605;28;114272;-82
2023/03/19 02:47:16;;;;;;;;;;;14.00;73.10;;;14.19;52.17;98448.66;4950376;28;114023;-84
2023/03/19 02:49:43;;;;;;;;;;;14.00;73.00;;;14.22;52.27;98453.50;4985285;28;124226;-80
2023/03/19 02:52:11;;;;;;;;;;;14.00;73.40;;;14.26;52.49;98451.66;4961824;28;124044;-83
2023/03/19 02:54:37;;;;;;;;;;;14.00;73.90;;;14.29;52.52;98458.47;4955605;28;114498;-82
2023/03/19 02:57:04;;;;;;;;;;;14.00;74.20;;;14.31;52.61;98464.50;4962282;28;113730;-84
2023/03/19 02:59:30;;;;;;;;;;;13.00;73.50;;;14.31;52.76;98458.94;4967801;28;124201;-83
2023/03/19 03:01:56;;;;;;;;;;;14.10;74.90;;;14.33;52.84;98453.88;4970194;28;123910;-85
2023/03/19 03:04:23;;;;;;;;;;;14.00;75.30;;;14.36;52.91;98453.16;4959079;28;114387;-79
2023/03/19 03:06:49;;;;;;;;;;;14.10;75.60;;;14.41;53.21;98464.06;4993200;28;113850;-78
2023/03/19 03:09:16;;;;;;;;;;;14.10;76.20;;;14.42;53.53;98457.34;4969255;28;124009;-85
2023/03/19 03:11:42;;;;;;;;;;;14.10;76.70;;;14.41;53.57;98461.28;4970209;28;124836;-78
2023/03/19 03:14:09;;;;;;;;;;;14.10;77.10;;;14.38;53.71;98458.41;4978651;28;116597;-80
2023/03/19 03:16:36;;;;;;;;;;;14.10;77.50;;;14.34;54.44;98458.25;4978391;28;114648;-79
2023/03/19 03:19:03;;;;;;;;;;;14.10;78.20;;;14.30;54.72;98468.47;4973516;28;124261;-78
2023/03/19 03:21:30;;;;;;;;;;;14.00;78.90;;;14.26;54.94;98462.75;4955134;28;124028;-79
2023/03/19 03:23:56;;;;;;;;;;;14.00;79.30;;;14.25;55.00;98457.56;4997587;28;115514;-82
2023/03/19 03:26:23;;;;;;;;;;;14.00;79.60;;;14.26;55.02;98467.50;4972282;28;113434;-82
2023/03/19 03:28:49;;;;;;;;;;;14.00;80.00;;;14.26;55.43;98464.72;4969816;28;124649;-80
2023/03/19 03:31:15;;;;;;;;;;;14.00;81.00;;;14.27;55.33;98458.84;4969467;28;124022;-80
2023/03/19 03:33:41;;;;;;;;;;;13.90;81.10;;;14.28;55.49;98459.66;4970765;28;114691;-81
2023/03/19 03:36:08;;;;;;;;;;;14.00;81.50;;;14.30;55.66;98457.34;4972718;28;113580;-79
2023/03/19 03:38:34;;;;;;;;;;;14.00;81.90;;;14.31;55.60;98470.06;4983691;28;123356;-79
2023/03/19 03:41:01;;;;;;;;;;;14.00;82.40;;;14.32;55.76;98463.38;4955376;28;123133;-79
2023/03/19 03:43:27;;;;;;;;;;;14.00;82.70;;;14.33;55.87;98471.34;4976412;28;114540;-78
2023/03/19 03:45:53;;;;;;;;;;;14.00;83.10;;;14.34;55.76;98464.63;4972660;28;113662;-80
2023/03/19 03:48:20;;;;;;;;;;;14.00;83.50;;;14.35;56.05;98473.78;4969714;28;124563;-79
2023/03/19 03:50:47;;;;;;;;;;;14.00;83.90;;;14.38;56.07;98475.06;4981436;28;122914;-78
2023/03/19 03:53:14;;;;;;;;;;;14.00;84.20;;;14.38;56.20;98477.84;4968902;28;114494;-82
2023/03/19 03:55:40;;;;;;;;;;;14.00;84.40;;;14.39;56.07;98480.28;4970162;28;113969;-83
2023/03/19 03:58:07;;;;;;;;;;;14.00;84.60;;;14.42;55.91;98478.78;4969465;28;124289;-82
2023/03/19 04:00:34;;;;;;;;;;;14.10;85.10;;;14.39;55.71;98473.91;4978577;28;124180;-78
2023/03/19 04:03:00;;;;;;;;;;;14.00;85.00;;;14.39;55.67;98485.81;4973091;28;114512;-78
2023/03/19 04:05:26;;;;;;;;;;;14.00;84.70;;;14.36;55.45;98479.00;4970983;28;113572;-82
2023/03/19 04:07:53;;;;;;;;;;;14.00;84.50;;;14.36;55.25;98483.75;4969581;28;124694;-79
2023/03/19 04:10:19;;;;;;;;;;;14.00;84.50;;;14.34;55.14;98486.84;4968679;28;124179;-78
2023/03/19 04:12:46;;;;;;;;;;;14.00;84.50;;;14.32;55.11;98486.41;4956333;28;115423;-78
2023/03/19 04:15:12;;;;;;;;;;;14.00;84.30;;;14.32;55.03;98491.16;4998903;28;114640;-78
2023/03/19 04:17:39;;;;;;;;;;;14.00;84.30;;;14.28;54.79;98496.59;4969521;28;124791;-81
2023/03/19 04:20:06;;;;;;;;;;;14.00;84.30;;;14.23;54.89;98491.25;4973428;28;124228;-78
2023/03/19 04:22:36;;;;;;;;;;;13.90;84.20;;;14.20;54.68;98489.16;4970029;28;114477;-83
2023/03/19 04:25:03;;;;;;;;;;;13.90;84.00;;;14.20;54.56;98502.25;4970192;28;113692;-79
2023/03/19 04:27:30;;;;;;;;;;;13.90;84.00;;;14.19;54.69;98492.28;4968325;28;124180;-78
2023/03/19 04:29:56;;;;;;;;;;;13.90;84.00;;;14.18;54.64;98499.00;4973917;28;124232;-79
2023/03/19 04:32:22;;;;;;;;;;;13.90;84.00;;;14.13;54.61;98495.28;4969308;28;114285;-83
2023/03/19 04:34:49;;;;;;;;;;;13.80;83.90;;;14.12;54.62;98504.75;4965269;28;114090;-79
2023/03/19 04:37:15;;;;;;;;;;;13.80;83.90;;;14.14;54.30;98502.47;4968180;28;124767;-84
2023/03/19 04:39:43;;;;;;;;;;;13.80;83.90;;;14.19;54.30;98503.41;5002127;28;122871;-80
2023/03/19 04:42:10;;;;;;;;;;;13.90;84.00;;;14.21;54.14;98496.34;4982055;28;113590;-83
2023/03/19 04:44:37;;;;;;;;;;;13.90;84.00;;;14.25;54.28;98499.25;4967872;28;113795;-79
2023/03/19 04:47:04;;;;;;;;;;;13.90;84.00;;;14.27;54.06;98508.06;4968197;28;124518;-79
2023/03/19 04:49:30;;;;;;;;;;;13.90;84.10;;;14.27;54.09;98503.31;4983858;28;123939;-79
2023/03/19 04:51:57;;;;;;;;;;;13.90;84.00;;;14.26;54.01;98506.41;4971985;28;113987;-79
2023/03/19 04:54:24;;;;;;;;;;;13.90;84.00;;;14.27;54.10;98510.84;4970784;28;112924;-77
2023/03/19 04:56:51;;;;;;;;;;;13.90;84.00;;;14.28;54.09;98510.47;4968519;28;124359;-82
2023/03/19 04:59:18;;;;;;;;;;;13.90;84.00;;;14.30;53.98;98512.94;4968542;28;124828;-80
2023/03/19 05:01:44;;;;;;;;;;;13.90;84.00;;;14.30;53.78;98518.47;4968264;28;115590;-80
2023/03/19 05:04:11;;;;;;;;;;;13.90;83.80;;;14.29;53.71;98514.06;4985039;28;112755;-81
2023/03/19 05:06:37;;;;;;;;;;;13.90;83.80;;;14.26;53.56;98523.09;4971985;28;124167;-78
2023/03/19 05:09:05;;;;;;;;;;;13.90;83.60;;;14.25;53.31;98529.81;4967233;28;123767;-83
2023/03/19 05:11:31;;;;;;;;;;;13.90;83.40;;;14.24;53.19;98525.41;4963736;28;114717;-79
2023/03/19 05:13:58;;;;;;;;;;;13.90;83.20;;;14.22;53.15;98538.84;4960536;28;113731;-77
2023/03/19 05:16:24;;;;;;;;;;;13.90;83.10;;;14.22;53.10;98530.50;4969032;28;124064;-77
2023/03/19 05:18:50;;;;;;;;;;;13.90;83.10;;;14.22;53.24;98536.88;4968570;28;123934;-79
2023/03/19 05:21:17;;;;;;;;;;;13.90;83.00;;;14.20;53.20;98533.63;4966882;28;114226;-79
2023/03/19 05:23:44;;;;;;;;;;;13.90;83.10;;;14.18;53.33;98547.03;4965827;28;116170;-79
2023/03/19 05:26:10;;;;;;;;;;;13.80;83.10;;;14.12;53.11;98540.88;4969668;28;124164;-80
2023/03/19 05:28:36;;;;;;;;;;;13.80;83.00;;;14.09;53.27;98544.34;4963707;28;123975;-79
2023/03/19 05:31:03;;;;;;;;;;;13.80;82.90;;;14.08;53.13;98542.72;4972066;28;114512;-82
2023/03/19 05:33:31;;;;;;;;;;;13.80;82.90;;;14.04;53.17;98541.78;4967949;28;113961;-81
2023/03/19 05:35:57;;;;;;;;;;;13.80;82.80;;;14.03;53.22;98539.34;4970642;28;124356;-79
2023/03/19 05:38:23;;;;;;;;;;;13.80;82.80;;;14.02;53.09;98543.28;4967449;28;123785;-78
2023/03/19 05:40:50;;;;;;;;;;;13.70;82.70;;;14.01;53.03;98548.03;4967350;28;113693;-78
2023/03/19 05:43:16;;;;;;;;;;;13.70;83.30;;;14.02;53.11;98543.28;4968547;28;113705;-81
2023/03/19 05:45:43;;;;;;;;;;;13.70;82.70;;;14.02;52.94;98541.31;4967533;28;124836;-79
2023/03/19 05:48:09;;;;;;;;;;;13.70;82.60;;;14.00;52.63;98540.84;4967419;28;124582;-78
2023/03/19 05:50:35;;;;;;;;;;;13.70;82.40;;;13.98;52.51;98545.13;4966992;28;115557;-79
2023/03/19 05:53:02;;;;;;;;;;;13.70;82.20;;;13.95;52.61;98549.41;4986066;28;114547;-84
2023/03/19 05:55:28;;;;;;;;;;;13.70;82.10;;;13.92;52.74;98545.34;4976354;28;123656;-81
2023/03/19 05:57:55;;;;;;;;;;;13.60;82.10;;;13.89;52.31;98548.00;4966100;28;124271;-84
2023/03/19 06:00:21;;;;;;;;;;;13.60;82.10;;;13.85;52.78;98556.16;4968933;28;114972;-84
2023/03/19 06:02:47;;;;;;;;;;;13.60;82.10;;;13.84;52.77;98559.31;4971264;28;113639;-79
2023/03/19 06:05:14;;;;;;;;;;;13.60;82.20;;;13.84;52.86;98560.09;4968110;28;124558;-83
2023/03/19 06:07:42;;;;;;;;;;;13.60;82.20;;;13.83;52.54;98566.00;4968238;28;124193;-79
2023/03/19 06:10:08;;;;;;;;;;;13.50;82.00;;;13.80;52.66;98561.94;4968883;28;115029;-82
2023/03/19 06:12:35;;;;;;;;;;;13.50;81.90;;;13.80;52.70;98570.25;4968610;28;113367;-83
2023/03/19 06:15:02;;;;;;;;;;;13.50;82.00;;;13.82;52.69;98564.38;4960897;28;124786;-84
2023/03/19 06:17:28;;;;;;;;;;;13.50;82.00;;;13.83;52.61;98566.78;4968297;28;124173;-81
2023/03/19 06:19:54;;;;;;;;;;;13.50;82.10;;;13.86;52.60;98565.31;4967899;28;115966;-77
2023/03/19 06:22:21;;;;;;;;;;;13.50;82.10;;;13.88;52.49;98566.59;4985251;28;113775;-80
2023/03/19 06:24:47;;;;;;;;;;;13.60;82.20;;;13.91;52.34;98571.47;4972494;28;124849;-79
2023/03/19 06:27:13;;;;;;;;;;;13.50;82.20;;;13.90;52.38;98564.28;4989288;28;123280;-81
2023/03/19 06:29:40;;;;;;;;;;;13.50;82.20;;;13.91;52.60;98571.47;4971580;28;114466;-81
2023/03/19 06:32:07;;;;;;;;;;;13.60;82.20;;;13.89;52.52;98573.00;4971699;28;113773;-77
2023/03/19 06:34:33;;;;;;;;;;;13.60;82.30;;;13.89;52.46;98573.00;4988657;28;123008;-78
2023/03/19 06:37:00;;;;;;;;;;;13.60;82.20;;;13.89;52.24;98573.00;4971192;28;123868;-81
2023/03/19 06:39:27;;;;;;;;;;;13.60;82.20;;;13.89;52.18;98567.44;4969655;28;115406;-82
2023/03/19 06:41:53;;;;;;;;;;;13.50;81.90;;;13.89;52.29;98573.78;4970144;28;114437;-78
2023/03/19 06:44:19;;;;;;;;;;;13.50;81.90;;;13.88;52.12;98574.13;4985799;28;123931;-77
2023/03/19 06:46:46;;;;;;;;;;;13.50;81.80;;;13.87;51.99;98576.09;4970690;28;123092;-77
2023/03/19 06:49:12;;;;;;;;;;;13.50;81.80;;;13.87;51.99;98570.53;4972410;28;113117;-77
2023/03/19 06:51:38;;;;;;;;;;;13.50;81.80;;;13.88;52.22;98574.94;4971577;28;113691;-81
2023/03/19 06:54:05;;;;;;;;;;;13.50;81.70;;;13.90;52.02;98571.81;4987934;28;123180;-78
2023/03/19 06:56:31;;;;;;;;;;;13.50;81.70;;;13.93;51.94;98579.47;4972850;28;124160;-78
2023/03/19 06:58:58;;;;;;;;;;;13.50;81.70;;;13.93;51.86;98579.47;4970824;28;114218;-78
2023/03/19 07:01:24;;;;;;;;;;;13.60;81.70;;;13.97;51.92;98582.38;4998495;28;113828;-83
2023/03/19 07:03:51;;;;;;;;;;;13.60;81.70;;;13.99;51.70;98574.50;4968912;28;124475;-81
2023/03/19 07:06:18;;;;;;;;;;;13.60;81.60;;;14.00;51.48;98579.75;4969511;28;123981;-81
2023/03/19 07:08:47;;;;;;;;;;;13.60;81.50;;;14.01;51.57;98573.03;4981041;28;115028;-85
2023/03/19 07:11:15;;;;;;;;;;;13.60;81.30;;;14.02;51.19;98573.81;4972397;28;113497;-81
2023/03/19 07:13:41;;;;;;;;;;;13.60;81.10;;;14.01;51.13;98572.22;4954539;28;123415;-78
2023/03/19 07:16:08;;;;;;;;;;;13.60;80.90;;;14.02;51.08;98573.81;4956101;28;123298;-82
2023/03/19 07:18:34;;;;;;;;;;;13.60;80.80;;;14.02;51.05;98582.16;4953077;28;114883;-84
2023/03/19 07:21:01;;;;;;;;;;;13.60;80.60;;;14.03;51.04;98575.47;4960496;28;113827;-83
2023/03/19 07:23:27;;;;;;;;;;;13.60;80.60;;;14.05;50.96;98582.31;4953590;28;124765;-82
2023/03/19 07:25:54;;;;;;;;;;;13.60;80.50;;;14.07;50.98;98579.97;4952459;28;123838;-81
2023/03/19 07:28:20;;;;;;;;;;;13.70;80.50;;;14.11;50.76;98586.50;4953727;28;115429;-80
2023/03/19 07:30:47;;;;;;;;;;;13.70;80.40;;;14.13;50.81;98589.75;4946237;28;114927;-81
2023/03/19 07:33:13;;;;;;;;;;;13.70;80.30;;;14.15;50.72;98584.66;4950803;28;124415;-82
2023/03/19 07:35:39;;;;;;;;;;;13.70;80.20;;;14.19;50.52;98586.75;4954516;28;123831;-83
2023/03/19 07:38:06;;;;;;;;;;;13.80;80.30;;;14.21;50.51;98595.56;4968909;28;114466;-81
2023/03/19 07:40:35;;;;;;;;;;;13.80;80.30;;;14.21;50.48;98590.00;4949843;28;114185;-80
2023/03/19 07:43:02;;;;;;;;;;;14.50;80.90;;;14.21;50.59;98590.00;4956327;28;124127;-81
2023/03/19 07:45:28;;;;;;;;;;;13.80;80.20;;;14.23;50.62;98593.25;4983265;28;124030;-81
2023/03/19 07:47:55;;;;;;;;;;;13.80;80.20;;;14.24;50.39;98594.88;4960670;28;114384;-77
2023/03/19 07:50:21;;;;;;;;;;;13.90;80.30;;;14.26;50.54;98606.47;4962427;28;113537;-78
2023/03/19 07:52:50;;;;;;;;;;;13.80;80.20;;;14.27;50.71;98596.97;4956940;28;124198;-77
2023/03/19 07:55:16;;;;;;;;;;;13.90;80.30;;;14.27;50.45;98599.75;4962371;28;125285;-79
2023/03/19 07:57:43;;;;;;;;;;;13.90;80.40;;;14.28;50.67;98595.81;4957248;28;113778;-80
2023/03/19 08:00:10;;;;;;;;;;;13.90;80.30;;;14.27;50.77;98602.53;4960844;28;113976;-76
2023/03/19 08:02:36;;;;;;;;;;;13.90;80.30;;;14.29;50.79;98603.00;4972643;28;123148;-80
2023/03/19 08:05:03;;;;;;;;;;;13.90;80.50;;;14.31;50.74;98597.91;4951033;28;123982;-77
2023/03/19 08:07:30;;;;;;;;;;;13.90;80.50;;;14.34;50.49;98588.88;4952422;28;114479;-80
2023/03/19 08:09:57;;;;;;;;;;;14.00;80.60;;;14.39;50.69;98594.22;4966339;28;114378;-81
2023/03/19 08:12:24;;;;;;;;;;;14.00;80.70;;;14.45;50.81;98600.38;4981990;28;124842;-80
2023/03/19 08:14:50;;;;;;;;;;;14.00;80.80;;;14.48;50.92;98600.53;4963777;28;123988;-78
2023/03/19 08:17:17;;;;;;;;;;;14.10;80.90;;;14.53;50.74;98600.34;4965639;28;115475;-76
2023/03/19 08:19:43;;;;;;;;;;;14.10;80.90;;;14.57;50.76;98609.59;4961754;28;114556;-77
2023/03/19 08:22:10;;;;;;;;;;;14.10;80.80;;;14.63;50.54;98609.38;4962770;28;124579;-77
2023/03/19 08:24:36;;;;;;;;;;;14.20;80.80;;;14.65;50.54;98594.00;4979966;28;123457;-77
2023/03/19 08:27:03;;;;;;;;;;;14.20;80.70;;;14.69;50.68;98602.44;4969522;28;114782;-76
2023/03/19 08:29:29;;;;;;;;;;;14.20;80.60;;;14.73;50.33;98600.59;4972748;28;113785;-79
2023/03/19 08:31:57;;;;;;;;;;;14.30;80.60;;;14.78;50.25;98592.03;4962404;28;123174;-77
2023/03/19 08:34:23;;;;;;;;;;;14.30;80.60;;;14.80;50.17;98587.75;4959669;28;123822;-79
2023/03/19 08:36:50;;;;;;;;;;;14.40;80.60;;;14.82;50.10;98597.72;4965292;28;113245;-77
2023/03/19 08:39:16;;;;;;;;;;;14.40;80.40;;;14.83;50.03;98600.16;4960638;28;113829;-78
2023/03/19 08:41:42;;;;;;;;;;;14.40;80.30;;;14.86;50.17;98599.47;4952128;28;124384;-76
2023/03/19 08:44:09;;;;;;;;;;;14.40;80.30;;;14.90;50.15;98602.38;4955013;28;123700;-77
2023/03/19 08:46:35;;;;;;;;;;;14.50;80.30;;;14.96;50.12;98601.81;4953943;28;114497;-76
2023/03/19 08:49:02;;;;;;;;;;;14.50;80.40;;;15.00;50.06;98604.69;4952326;28;113853;-77
2023/03/19 08:51:30;;;;;;;;;;;14.50;80.40;;;15.07;50.10;98606.88;4958837;28;125214;-78
2023/03/19 08:53:56;;;;;;;;;;;15.70;81.50;;;15.12;49.90;98613.03;4983261;28;123192;-76
2023/03/19 08:56:22;;;;;;;;;;;14.60;80.60;;;15.17;50.05;98603.66;4958634;28;114756;-76
2023/03/19 08:58:49;;;;;;;;;;;14.70;80.70;;;15.22;50.28;98614.56;4950139;28;113668;-76
2023/03/19 09:01:15;;;;;;;;;;;14.70;80.70;;;15.29;50.33;98616.78;4951088;28;124341;-76
2023/03/19 09:03:43;;;;;;;;;;;14.80;80.90;;;15.33;50.20;98621.28;4950724;28;123983;-77
2023/03/19 09:06:10;;;;;;;;;;;14.80;80.90;;;15.40;50.19;98617.91;4950342;28;115356;-78
2023/03/19 09:08:37;;;;;;;;;;;14.90;81.00;;;15.44;50.06;98621.63;4960614;28;114911;-79
2023/03/19 09:11:04;;;;;;;;;;;14.90;80.90;;;15.49;49.68;98624.16;4950713;28;124760;-76
2023/03/19 09:13:31;;;;;;;;;;;15.00;80.80;;;15.55;49.72;98624.75;4970232;28;123433;-78
2023/03/19 09:15:57;;;;;;;;;;;15.00;80.70;;;15.61;49.72;98621.38;4965769;28;114794;-77
2023/03/19 09:18:24;;;;;;;;;;;15.10;80.70;;;15.68;49.46;98618.84;4979711;28;112750;-81
2023/03/19 09:20:52;;;;;;;;;;;15.20;80.60;;;15.75;49.28;98621.03;4964372;28;124516;-76
2023/03/19 09:23:20;;;;;;;;;;;15.20;80.40;;;15.81;49.18;98619.63;4966460;28;124017;-76
2023/03/19 09:25:46;;;;;;;;;;;15.20;80.30;;;15.88;49.19;98607.91;4987714;28;113729;-77
2023/03/19 09:28:12;;;;;;;;;;;15.40;80.40;;;15.95;48.90;98615.66;4967616;28;114337;-77
2023/03/19 09:30:39;;;;;;;;;;;15.40;80.20;;;16.00;48.67;98616.22;4961007;28;124364;-77
2023/03/19 09:33:05;;;;;;;;;;;15.40;80.00;;;16.06;48.57;98616.75;4965310;28;123876;-76
2023/03/19 09:35:32;;;;;;;;;;;15.50;79.80;;;16.12;48.39;98618.16;4989368;28;114734;-77
2023/03/19 09:37:59;;;;;;;;;;;15.60;79.60;;;16.18;48.23;98613.13;4963174;28;115979;-76
2023/03/19 09:40:37;;;;;;;;;;;15.60;79.30;;;16.23;47.72;98610.09;4985612;28;123090;-76
2023/03/19 09:43:44;;;;;;;;;;;15.70;78.50;;;16.25;47.49;98607.75;4952513;28;124463;-76
2023/03/19 09:46:17;;;;;;;;;;;15.80;78.20;;;16.23;46.89;98604.53;4970550;28;114633;-76
2023/03/19 09:49:05;;;;;;;;;;;15.80;77.10;;;16.22;46.83;98600.91;4959144;28;114786;-77
2023/03/19 09:51:42;;;;;;;;;;;15.80;77.00;;;16.30;46.90;98601.91;4969479;28;124823;-76
2023/03/19 09:54:18;;;;;;;;;;;15.80;76.90;;;16.39;46.79;98601.75;4980201;28;123040;-76
2023/03/19 09:56:44;;;;;;;;;;;15.90;76.80;;;16.46;46.53;98604.75;4960747;28;116071;-78
2023/03/19 09:59:11;;;;;;;;;;;15.90;76.90;;;16.52;46.19;98597.75;4955798;28;115308;-76
2023/03/19 10:01:40;;;;;;;;;;;16.00;76.40;;;16.57;46.16;98589.91;4969458;28;123617;-75
2023/03/19 10:04:18;;;;;;;;;;;16.00;76.30;;;16.63;45.86;98592.44;4958980;28;124072;-89
2023/03/19 10:06:45;;;;;;;;;;;16.00;76.20;;;16.69;45.71;98591.84;4993707;28;114235;-81
2023/03/19 10:09:17;;;;;;;;;;;16.10;75.80;;;16.76;45.15;98589.25;4965936;28;113956;-75
2023/03/19 10:12:16;;;;;;;;;;;16.20;75.20;;;16.84;46.81;98584.66;4965316;28;123956;-76
2023/03/19 10:14:59;;;;;;;;;;;16.30;76.50;;;16.90;45.46;98583.25;4967524;28;124244;-75
2023/03/19 10:17:32;;;;;;;;;;;16.30;75.50;;;16.96;44.61;98575.41;4963508;28;114717;-76
2023/03/19 10:20:32;;;;;;;;;;;16.40;74.60;;;17.00;44.16;98576.31;4961540;28;113586;-75
2023/03/19 10:23:28;;;;;;;;;;;16.50;73.70;;;17.07;43.63;98575.69;4970913;28;125613;-75
2023/03/19 10:25:58;;;;;;;;;;;16.50;72.90;;;17.14;43.29;98585.06;4971098;28;124313;-78
2023/03/19 10:28:26;;;;;;;;;;;16.60;72.50;;;17.20;42.91;98575.22;4975385;28;113885;-75
2023/03/19 10:30:59;;;;;;;;;;;16.70;71.60;;;17.27;42.59;98579.34;4965790;28;113274;-76
2023/03/19 10:33:35;;;;;;;;;;;16.70;71.20;;;17.31;42.30;98580.25;4959859;28;123352;-77
2023/03/19 10:36:08;;;;;;;;;;;16.80;70.80;;;17.35;42.30;98564.38;4984297;28;124436;-77
2023/03/19 10:38:39;;;;;;;;;;;16.80;70.60;;;17.41;42.15;98572.13;4965242;28;113903;-78
2023/03/19 10:41:20;;;;;;;;;;;16.90;70.40;;;17.48;41.88;98565.88;4966387;28;113092;-84
2023/03/19 10:43:52;;;;;;;;;;;16.90;70.00;;;17.53;41.63;98560.00;4968872;28;124750;-78
2023/03/19 10:46:20;;;;;;;;;;;17.00;69.30;;;17.59;41.59;98558.53;4968143;28;124571;-76
2023/03/19 10:48:51;;;;;;;;;;;17.10;69.30;;;17.66;40.89;98564.31;4954681;28;115665;-76
2023/03/19 10:51:22;;;;;;;;;;;17.20;68.40;;;17.73;40.24;98546.91;4951495;28;114301;-76
2023/03/19 10:53:52;;;;;;;;;;;17.20;67.10;;;17.80;39.98;98555.44;4960641;28;124281;-76
2023/03/19 10:56:19;;;;;;;;;;;17.30;66.60;;;17.89;39.48;98544.03;4953246;28;124327;-77
2023/03/19 10:59:00;;;;;;;;;;;17.30;66.40;;;17.97;39.44;98543.00;4968296;28;114652;-79
2023/03/19 11:01:40;;;;;;;;;;;17.40;66.20;;;18.05;38.77;98542.00;4965898;28;113673;-77
2023/03/19 11:04:19;;;;;;;;;;;17.50;64.90;;;18.13;38.49;98539.31;4967675;28;124219;-76
2023/03/19 11:06:50;;;;;;;;;;;17.60;64.60;;;18.21;37.91;98532.69;4954319;28;123813;-77
2023/03/19 11:09:32;;;;;;;;;;;18.80;64.60;;;18.26;37.62;98541.59;4961127;28;114708;-76
2023/03/19 11:12:17;;;;;;;;;;;17.70;63.00;;;18.31;37.86;98543.28;4964225;28;114917;-75
2023/03/19 11:14:53;;;;;;;;;;;17.80;63.30;;;18.41;37.71;98537.09;4991483;28;125066;-74